Stanley Mission, Canada
Current Conditions -  °F | °C
As of 10:00 PM on Saturday 25 Oct 2014 (Local Time) from CYVC Reporting Station
Overcast Overcast  
Wind Chill: 30°   Ceiling: 6000
Heat Index: 30°   Visibility: 15mi
Dew Point: 25°   Wind: 2mph
Humidity: 80%   Direction: 80°E
Pressure: 29.89"   Gusts: NA
Location:  55.42°N, 104.56°W
Report Text: CYVC 260400Z 08002KT 15SM OVC060 M01/M04 A2989 RMK SC8 SLP141
Loading
Personal Weather Stations






























Interactive Weather Map
Tropical Storm Tracking
New forecast layout! Learn more

10-Day Weather Forecast

Advertisements
Track Severe Weather on mobile